sensor_id;sensor_type;location;lat;lon;timestamp;temperature;humidity
37974;DHT22;23796;51.458;7.000;2023-04-25T00:00:50;7.10;85.10
37974;DHT22;23796;51.458;7.000;2023-04-25T00:03:18;7.10;85.30
37974;DHT22;23796;51.458;7.000;2023-04-25T00:05:44;7.10;85.50
37974;DHT22;23796;51.458;7.000;2023-04-25T00:08:10;7.10;85.70
37974;DHT22;23796;51.458;7.000;2023-04-25T00:10:36;7.00;86.10
37974;DHT22;23796;51.458;7.000;2023-04-25T00:13:04;7.00;86.40
37974;DHT22;23796;51.458;7.000;2023-04-25T00:15:30;7.00;86.40
37974;DHT22;23796;51.458;7.000;2023-04-25T00:17:56;7.00;86.30
37974;DHT22;23796;51.458;7.000;2023-04-25T00:20:22;7.00;86.40
37974;DHT22;23796;51.458;7.000;2023-04-25T00:22:49;7.00;86.60
37974;DHT22;23796;51.458;7.000;2023-04-25T00:25:15;7.10;86.40
37974;DHT22;23796;51.458;7.000;2023-04-25T00:27:40;7.00;86.70
37974;DHT22;23796;51.458;7.000;2023-04-25T00:30:08;7.10;86.80
37974;DHT22;23796;51.458;7.000;2023-04-25T00:32:34;7.10;86.80
37974;DHT22;23796;51.458;7.000;2023-04-25T00:35:05;7.10;86.90
37974;DHT22;23796;51.458;7.000;2023-04-25T00:37:33;7.10;86.70
37974;DHT22;23796;51.458;7.000;2023-04-25T00:39:59;7.10;87.20
37974;DHT22;23796;51.458;7.000;2023-04-25T00:42:25;7.10;86.90
37974;DHT22;23796;51.458;7.000;2023-04-25T00:44:52;7.10;87.10
37974;DHT22;23796;51.458;7.000;2023-04-25T00:47:20;7.20;86.90
37974;DHT22;23796;51.458;7.000;2023-04-25T00:49:46;7.20;86.80
37974;DHT22;23796;51.458;7.000;2023-04-25T00:52:13;7.30;86.40
37974;DHT22;23796;51.458;7.000;2023-04-25T00:54:39;7.30;86.20
37974;DHT22;23796;51.458;7.000;2023-04-25T00:57:05;7.30;86.10
37974;DHT22;23796;51.458;7.000;2023-04-25T00:59:33;7.40;86.10
37974;DHT22;23796;51.458;7.000;2023-04-25T01:02:02;7.30;86.00
37974;DHT22;23796;51.458;7.000;2023-04-25T01:04:30;7.30;86.10
37974;DHT22;23796;51.458;7.000;2023-04-25T01:06:59;7.10;86.90
37974;DHT22;23796;51.458;7.000;2023-04-25T01:09:24;7.00;87.30
37974;DHT22;23796;51.458;7.000;2023-04-25T01:11:51;6.90;87.50
37974;DHT22;23796;51.458;7.000;2023-04-25T01:14:16;6.90;87.60
37974;DHT22;23796;51.458;7.000;2023-04-25T01:16:42;6.80;87.90
37974;DHT22;23796;51.458;7.000;2023-04-25T01:19:12;6.80;87.90
37974;DHT22;23796;51.458;7.000;2023-04-25T01:21:41;6.80;88.30
37974;DHT22;23796;51.458;7.000;2023-04-25T01:24:10;7.00;88.10
37974;DHT22;23796;51.458;7.000;2023-04-25T01:26:38;7.10;87.60
37974;DHT22;23796;51.458;7.000;2023-04-25T01:29:07;7.20;87.20
37974;DHT22;23796;51.458;7.000;2023-04-25T01:31:33;7.10;87.20
37974;DHT22;23796;51.458;7.000;2023-04-25T01:34:02;7.00;87.70
37974;DHT22;23796;51.458;7.000;2023-04-25T01:36:28;7.00;88.10
37974;DHT22;23796;51.458;7.000;2023-04-25T01:38:53;6.90;88.20
37974;DHT22;23796;51.458;7.000;2023-04-25T01:41:20;6.90;88.50
37974;DHT22;23796;51.458;7.000;2023-04-25T01:43:48;6.80;88.80
37974;DHT22;23796;51.458;7.000;2023-04-25T01:46:14;6.80;88.90
37974;DHT22;23796;51.458;7.000;2023-04-25T01:48:40;6.70;89.30
37974;DHT22;23796;51.458;7.000;2023-04-25T01:51:06;6.70;89.40
37974;DHT22;23796;51.458;7.000;2023-04-25T01:53:31;6.80;89.30
37974;DHT22;23796;51.458;7.000;2023-04-25T01:55:59;6.80;89.30
37974;DHT22;23796;51.458;7.000;2023-04-25T01:58:27;6.90;89.10
37974;DHT22;23796;51.458;7.000;2023-04-25T02:00:53;6.90;89.20
37974;DHT22;23796;51.458;7.000;2023-04-25T02:03:18;6.90;89.20
37974;DHT22;23796;51.458;7.000;2023-04-25T02:05:46;6.90;89.30
37974;DHT22;23796;51.458;7.000;2023-04-25T02:08:12;7.00;89.00
37974;DHT22;23796;51.458;7.000;2023-04-25T02:10:37;6.90;89.00
37974;DHT22;23796;51.458;7.000;2023-04-25T02:13:03;6.90;89.30
37974;DHT22;23796;51.458;7.000;2023-04-25T02:15:30;6.90;89.30
37974;DHT22;23796;51.458;7.000;2023-04-25T02:17:58;7.00;89.20
37974;DHT22;23796;51.458;7.000;2023-04-25T02:20:26;7.00;89.20
37974;DHT22;23796;51.458;7.000;2023-04-25T02:22:52;6.90;89.40
37974;DHT22;23796;51.458;7.000;2023-04-25T02:25:20;6.90;89.70
37974;DHT22;23796;51.458;7.000;2023-04-25T02:27:47;6.90;89.80
37974;DHT22;23796;51.458;7.000;2023-04-25T02:30:12;6.90;89.50
37974;DHT22;23796;51.458;7.000;2023-04-25T02:32:41;6.90;89.50
37974;DHT22;23796;51.458;7.000;2023-04-25T02:35:07;6.80;89.80
37974;DHT22;23796;51.458;7.000;2023-04-25T02:37:34;6.80;89.90
37974;DHT22;23796;51.458;7.000;2023-04-25T02:40:00;6.80;89.80
37974;DHT22;23796;51.458;7.000;2023-04-25T02:42:26;6.80;90.00
37974;DHT22;23796;51.458;7.000;2023-04-25T02:44:52;6.90;89.90
37974;DHT22;23796;51.458;7.000;2023-04-25T02:47:23;6.90;89.80
37974;DHT22;23796;51.458;7.000;2023-04-25T02:49:51;6.90;89.70
37974;DHT22;23796;51.458;7.000;2023-04-25T02:52:17;6.80;90.00
37974;DHT22;23796;51.458;7.000;2023-04-25T02:54:43;6.80;90.20
37974;DHT22;23796;51.458;7.000;2023-04-25T02:57:09;6.80;90.70
37974;DHT22;23796;51.458;7.000;2023-04-25T02:59:35;6.70;90.90
37974;DHT22;23796;51.458;7.000;2023-04-25T03:02:00;6.70;91.10
37974;DHT22;23796;51.458;7.000;2023-04-25T03:04:28;6.70;91.10
37974;DHT22;23796;51.458;7.000;2023-04-25T03:06:54;6.70;90.70
37974;DHT22;23796;51.458;7.000;2023-04-25T03:09:20;6.80;90.60
37974;DHT22;23796;51.458;7.000;2023-04-25T03:11:47;6.80;90.30
37974;DHT22;23796;51.458;7.000;2023-04-25T03:14:13;6.80;90.60
37974;DHT22;23796;51.458;7.000;2023-04-25T03:16:41;6.70;90.70
37974;DHT22;23796;51.458;7.000;2023-04-25T03:19:07;6.70;90.80
37974;DHT22;23796;51.458;7.000;2023-04-25T03:21:35;6.60;90.70
37974;DHT22;23796;51.458;7.000;2023-04-25T03:24:04;6.50;91.10
37974;DHT22;23796;51.458;7.000;2023-04-25T03:26:30;6.40;91.70
37974;DHT22;23796;51.458;7.000;2023-04-25T03:28:56;6.40;91.80
37974;DHT22;23796;51.458;7.000;2023-04-25T03:31:21;6.40;91.70
37974;DHT22;23796;51.458;7.000;2023-04-25T03:33:47;6.40;91.90
37974;DHT22;23796;51.458;7.000;2023-04-25T03:36:13;6.40;91.70
37974;DHT22;23796;51.458;7.000;2023-04-25T03:38:39;6.40;91.60
37974;DHT22;23796;51.458;7.000;2023-04-25T03:41:06;6.40;91.40
37974;DHT22;23796;51.458;7.000;2023-04-25T03:43:32;6.40;91.30
37974;DHT22;23796;51.458;7.000;2023-04-25T03:45:57;6.50;91.20
37974;DHT22;23796;51.458;7.000;2023-04-25T03:48:23;6.50;91.10
37974;DHT22;23796;51.458;7.000;2023-04-25T03:50:51;6.50;91.10
37974;DHT22;23796;51.458;7.000;2023-04-25T03:53:17;6.40;90.90
37974;DHT22;23796;51.458;7.000;2023-04-25T03:55:45;6.40;91.30
37974;DHT22;23796;51.458;7.000;2023-04-25T03:58:10;6.50;91.00
37974;DHT22;23796;51.458;7.000;2023-04-25T04:00:38;6.50;90.90
37974;DHT22;23796;51.458;7.000;2023-04-25T04:03:06;6.50;91.00
37974;DHT22;23796;51.458;7.000;2023-04-25T04:05:34;6.50;91.20
37974;DHT22;23796;51.458;7.000;2023-04-25T04:08:06;6.50;91.90
37974;DHT22;23796;51.458;7.000;2023-04-25T04:10:34;6.40;93.00
37974;DHT22;23796;51.458;7.000;2023-04-25T04:13:00;6.40;93.50
37974;DHT22;23796;51.458;7.000;2023-04-25T04:15:25;6.30;93.50
37974;DHT22;23796;51.458;7.000;2023-04-25T04:17:51;6.30;93.80
37974;DHT22;23796;51.458;7.000;2023-04-25T04:20:19;6.30;93.50
37974;DHT22;23796;51.458;7.000;2023-04-25T04:22:45;6.30;93.30
37974;DHT22;23796;51.458;7.000;2023-04-25T04:25:13;6.30;93.40
37974;DHT22;23796;51.458;7.000;2023-04-25T04:27:43;6.40;93.10
37974;DHT22;23796;51.458;7.000;2023-04-25T04:30:12;6.40;92.40
37974;DHT22;23796;51.458;7.000;2023-04-25T04:32:41;6.30;92.40
37974;DHT22;23796;51.458;7.000;2023-04-25T04:35:07;6.30;92.90
37974;DHT22;23796;51.458;7.000;2023-04-25T04:37:36;6.30;92.80
37974;DHT22;23796;51.458;7.000;2023-04-25T04:40:02;6.30;92.50
37974;DHT22;23796;51.458;7.000;2023-04-25T04:42:35;6.20;93.00
37974;DHT22;23796;51.458;7.000;2023-04-25T04:45:01;6.20;93.70
37974;DHT22;23796;51.458;7.000;2023-04-25T04:47:29;6.10;93.80
37974;DHT22;23796;51.458;7.000;2023-04-25T04:50:00;6.10;93.70
37974;DHT22;23796;51.458;7.000;2023-04-25T04:52:25;6.00;93.30
37974;DHT22;23796;51.458;7.000;2023-04-25T04:54:51;6.00;93.40
37974;DHT22;23796;51.458;7.000;2023-04-25T04:57:17;6.00;93.30
37974;DHT22;23796;51.458;7.000;2023-04-25T04:59:45;6.00;93.20
37974;DHT22;23796;51.458;7.000;2023-04-25T05:02:13;6.00;93.40
37974;DHT22;23796;51.458;7.000;2023-04-25T05:04:39;6.00;93.40
37974;DHT22;23796;51.458;7.000;2023-04-25T05:07:07;6.00;93.30
37974;DHT22;23796;51.458;7.000;2023-04-25T05:09:35;6.10;93.40
37974;DHT22;23796;51.458;7.000;2023-04-25T05:12:00;6.10;93.20
37974;DHT22;23796;51.458;7.000;2023-04-25T05:14:28;6.10;93.00
37974;DHT22;23796;51.458;7.000;2023-04-25T05:16:56;6.20;92.90
37974;DHT22;23796;51.458;7.000;2023-04-25T05:19:22;6.10;92.90
37974;DHT22;23796;51.458;7.000;2023-04-25T05:21:48;6.00;93.00
37974;DHT22;23796;51.458;7.000;2023-04-25T05:24:14;6.00;93.30
37974;DHT22;23796;51.458;7.000;2023-04-25T05:26:42;6.10;92.60
37974;DHT22;23796;51.458;7.000;2023-04-25T05:29:07;6.10;92.40
37974;DHT22;23796;51.458;7.000;2023-04-25T05:31:33;6.20;92.20
37974;DHT22;23796;51.458;7.000;2023-04-25T05:33:59;6.30;92.30
37974;DHT22;23796;51.458;7.000;2023-04-25T05:36:27;6.30;91.60
37974;DHT22;23796;51.458;7.000;2023-04-25T05:38:53;6.30;91.90
37974;DHT22;23796;51.458;7.000;2023-04-25T05:41:19;6.40;91.80
37974;DHT22;23796;51.458;7.000;2023-04-25T05:43:47;6.40;91.40
37974;DHT22;23796;51.458;7.000;2023-04-25T05:46:15;6.30;90.70
37974;DHT22;23796;51.458;7.000;2023-04-25T05:48:43;6.30;91.00
37974;DHT22;23796;51.458;7.000;2023-04-25T05:51:09;6.30;91.10
37974;DHT22;23796;51.458;7.000;2023-04-25T05:53:37;6.30;90.90
37974;DHT22;23796;51.458;7.000;2023-04-25T05:56:02;6.20;90.70
37974;DHT22;23796;51.458;7.000;2023-04-25T05:58:33;6.30;90.80
37974;DHT22;23796;51.458;7.000;2023-04-25T06:00:58;6.30;90.90
37974;DHT22;23796;51.458;7.000;2023-04-25T06:03:24;6.40;90.50
37974;DHT22;23796;51.458;7.000;2023-04-25T06:05:50;6.40;90.00
37974;DHT22;23796;51.458;7.000;2023-04-25T06:08:15;6.40;89.50
37974;DHT22;23796;51.458;7.000;2023-04-25T06:10:41;6.40;89.50
37974;DHT22;23796;51.458;7.000;2023-04-25T06:13:07;6.50;89.90
37974;DHT22;23796;51.458;7.000;2023-04-25T06:15:32;6.50;89.60
37974;DHT22;23796;51.458;7.000;2023-04-25T06:17:58;6.50;90.20
37974;DHT22;23796;51.458;7.000;2023-04-25T06:20:24;6.40;89.60
37974;DHT22;23796;51.458;7.000;2023-04-25T06:22:50;6.30;89.40
37974;DHT22;23796;51.458;7.000;2023-04-25T06:25:17;6.30;90.00
37974;DHT22;23796;51.458;7.000;2023-04-25T06:27:43;6.20;90.40
37974;DHT22;23796;51.458;7.000;2023-04-25T06:30:09;6.30;90.30
37974;DHT22;23796;51.458;7.000;2023-04-25T06:32:35;6.40;89.80
37974;DHT22;23796;51.458;7.000;2023-04-25T06:35:00;6.50;88.80
37974;DHT22;23796;51.458;7.000;2023-04-25T06:37:26;6.70;87.40
37974;DHT22;23796;51.458;7.000;2023-04-25T06:39:52;6.90;85.40
37974;DHT22;23796;51.458;7.000;2023-04-25T06:42:18;7.00;84.80
37974;DHT22;23796;51.458;7.000;2023-04-25T06:44:45;7.10;84.70
37974;DHT22;23796;51.458;7.000;2023-04-25T06:47:11;7.10;83.50
37974;DHT22;23796;51.458;7.000;2023-04-25T06:49:39;7.10;83.70
37974;DHT22;23796;51.458;7.000;2023-04-25T06:52:07;7.10;83.60
37974;DHT22;23796;51.458;7.000;2023-04-25T06:54:36;7.00;83.70
37974;DHT22;23796;51.458;7.000;2023-04-25T06:57:01;7.00;84.10
37974;DHT22;23796;51.458;7.000;2023-04-25T06:59:27;6.80;84.20
37974;DHT22;23796;51.458;7.000;2023-04-25T07:01:53;6.70;83.00
37974;DHT22;23796;51.458;7.000;2023-04-25T07:04:18;6.80;81.50
37974;DHT22;23796;51.458;7.000;2023-04-25T07:06:49;6.80;81.60
37974;DHT22;23796;51.458;7.000;2023-04-25T07:09:15;6.80;80.90
37974;DHT22;23796;51.458;7.000;2023-04-25T07:11:45;6.90;79.50
37974;DHT22;23796;51.458;7.000;2023-04-25T07:14:10;7.00;80.20
37974;DHT22;23796;51.458;7.000;2023-04-25T07:16:38;7.00;79.80
37974;DHT22;23796;51.458;7.000;2023-04-25T07:19:04;7.00;80.40
37974;DHT22;23796;51.458;7.000;2023-04-25T07:21:30;7.10;80.60
37974;DHT22;23796;51.458;7.000;2023-04-25T07:23:56;7.40;80.00
37974;DHT22;23796;51.458;7.000;2023-04-25T07:26:22;7.50;80.00
37974;DHT22;23796;51.458;7.000;2023-04-25T07:28:50;7.60;80.50
37974;DHT22;23796;51.458;7.000;2023-04-25T07:31:20;7.50;79.60
37974;DHT22;23796;51.458;7.000;2023-04-25T07:33:45;7.50;78.60
37974;DHT22;23796;51.458;7.000;2023-04-25T07:36:12;7.50;79.60
37974;DHT22;23796;51.458;7.000;2023-04-25T07:38:38;7.40;77.90
37974;DHT22;23796;51.458;7.000;2023-04-25T07:41:08;7.40;77.70
37974;DHT22;23796;51.458;7.000;2023-04-25T07:43:34;7.20;77.80
37974;DHT22;23796;51.458;7.000;2023-04-25T07:46:00;7.30;77.90
37974;DHT22;23796;51.458;7.000;2023-04-25T07:48:25;7.30;76.20
37974;DHT22;23796;51.458;7.000;2023-04-25T07:50:51;7.40;76.40
37974;DHT22;23796;51.458;7.000;2023-04-25T07:53:16;7.50;74.40
37974;DHT22;23796;51.458;7.000;2023-04-25T07:55:46;7.50;75.10
37974;DHT22;23796;51.458;7.000;2023-04-25T07:58:14;7.70;74.60
37974;DHT22;23796;51.458;7.000;2023-04-25T08:00:40;7.90;74.00
37974;DHT22;23796;51.458;7.000;2023-04-25T08:03:06;8.10;73.70
37974;DHT22;23796;51.458;7.000;2023-04-25T08:05:32;8.30;73.40
37974;DHT22;23796;51.458;7.000;2023-04-25T08:07:59;8.30;71.20
37974;DHT22;23796;51.458;7.000;2023-04-25T08:10:24;8.30;70.90
37974;DHT22;23796;51.458;7.000;2023-04-25T08:12:52;8.50;69.20
37974;DHT22;23796;51.458;7.000;2023-04-25T08:15:18;8.40;69.70
37974;DHT22;23796;51.458;7.000;2023-04-25T08:17:46;8.30;71.60
37974;DHT22;23796;51.458;7.000;2023-04-25T08:20:12;8.30;71.80
37974;DHT22;23796;51.458;7.000;2023-04-25T08:22:37;8.50;71.70
37974;DHT22;23796;51.458;7.000;2023-04-25T08:25:03;8.60;69.20
37974;DHT22;23796;51.458;7.000;2023-04-25T08:27:31;8.60;68.00
37974;DHT22;23796;51.458;7.000;2023-04-25T08:29:57;8.60;67.90
37974;DHT22;23796;51.458;7.000;2023-04-25T08:32:24;8.70;68.30
37974;DHT22;23796;51.458;7.000;2023-04-25T08:34:49;8.80;67.90
37974;DHT22;23796;51.458;7.000;2023-04-25T08:37:16;8.60;69.70
37974;DHT22;23796;51.458;7.000;2023-04-25T08:39:47;8.60;70.70
37974;DHT22;23796;51.458;7.000;2023-04-25T08:42:18;8.80;70.10
37974;DHT22;23796;51.458;7.000;2023-04-25T08:44:48;8.90;70.20
37974;DHT22;23796;51.458;7.000;2023-04-25T08:47:14;8.80;70.10
37974;DHT22;23796;51.458;7.000;2023-04-25T08:49:40;8.90;69.90
37974;DHT22;23796;51.458;7.000;2023-04-25T08:52:09;9.10;68.90
37974;DHT22;23796;51.458;7.000;2023-04-25T08:54:42;9.20;67.60
37974;DHT22;23796;51.458;7.000;2023-04-25T08:57:09;9.20;67.70
37974;DHT22;23796;51.458;7.000;2023-04-25T08:59:35;9.20;67.00
37974;DHT22;23796;51.458;7.000;2023-04-25T09:02:03;9.20;65.80
37974;DHT22;23796;51.458;7.000;2023-04-25T09:04:31;9.40;65.60
37974;DHT22;23796;51.458;7.000;2023-04-25T09:06:57;9.40;63.00
37974;DHT22;23796;51.458;7.000;2023-04-25T09:09:26;9.40;64.20
37974;DHT22;23796;51.458;7.000;2023-04-25T09:11:54;9.70;64.70
37974;DHT22;23796;51.458;7.000;2023-04-25T09:14:23;9.30;64.90
37974;DHT22;23796;51.458;7.000;2023-04-25T09:21:56;9.20;65.90
37974;DHT22;23796;51.458;7.000;2023-04-25T09:24:50;9.20;65.20
37974;DHT22;23796;51.458;7.000;2023-04-25T09:27:20;8.90;64.50
37974;DHT22;23796;51.458;7.000;2023-04-25T09:29:48;8.90;65.10
37974;DHT22;23796;51.458;7.000;2023-04-25T09:32:23;9.00;65.90
37974;DHT22;23796;51.458;7.000;2023-04-25T09:37:18;9.30;63.30
37974;DHT22;23796;51.458;7.000;2023-04-25T09:39:46;9.50;61.20
37974;DHT22;23796;51.458;7.000;2023-04-25T09:42:15;9.60;61.20
37974;DHT22;23796;51.458;7.000;2023-04-25T09:44:45;9.90;60.30
37974;DHT22;23796;51.458;7.000;2023-04-25T09:47:15;10.20;59.30
37974;DHT22;23796;51.458;7.000;2023-04-25T09:49:43;9.90;59.90
37974;DHT22;23796;51.458;7.000;2023-04-25T09:52:17;9.90;60.60
37974;DHT22;23796;51.458;7.000;2023-04-25T09:54:46;9.70;60.40
37974;DHT22;23796;51.458;7.000;2023-04-25T09:57:17;9.70;60.90
37974;DHT22;23796;51.458;7.000;2023-04-25T09:59:56;9.70;61.50
37974;DHT22;23796;51.458;7.000;2023-04-25T10:02:23;9.70;61.10
37974;DHT22;23796;51.458;7.000;2023-04-25T10:04:54;9.70;61.20
37974;DHT22;23796;51.458;7.000;2023-04-25T10:07:27;10.10;60.60
37974;DHT22;23796;51.458;7.000;2023-04-25T10:10:02;10.30;60.10
37974;DHT22;23796;51.458;7.000;2023-04-25T10:12:29;10.00;59.70
37974;DHT22;23796;51.458;7.000;2023-04-25T10:15:00;10.00;59.70
37974;DHT22;23796;51.458;7.000;2023-04-25T10:17:26;10.20;58.00
37974;DHT22;23796;51.458;7.000;2023-04-25T10:19:55;10.10;57.50
37974;DHT22;23796;51.458;7.000;2023-04-25T10:22:39;9.90;57.00
37974;DHT22;23796;51.458;7.000;2023-04-25T10:25:07;9.90;56.70
37974;DHT22;23796;51.458;7.000;2023-04-25T10:27:34;9.90;57.20
37974;DHT22;23796;51.458;7.000;2023-04-25T10:30:10;10.00;57.90
37974;DHT22;23796;51.458;7.000;2023-04-25T10:32:38;10.20;57.90
37974;DHT22;23796;51.458;7.000;2023-04-25T10:35:19;10.40;58.40
37974;DHT22;23796;51.458;7.000;2023-04-25T10:38:11;10.50;58.80
37974;DHT22;23796;51.458;7.000;2023-04-25T10:40:38;10.20;57.70
37974;DHT22;23796;51.458;7.000;2023-04-25T10:43:33;10.10;58.50
37974;DHT22;23796;51.458;7.000;2023-04-25T10:45:59;9.60;59.00
37974;DHT22;23796;51.458;7.000;2023-04-25T10:48:29;9.60;60.40
37974;DHT22;23796;51.458;7.000;2023-04-25T10:53:38;9.30;64.90
37974;DHT22;23796;51.458;7.000;2023-04-25T10:56:17;9.20;66.30
37974;DHT22;23796;51.458;7.000;2023-04-25T10:58:45;9.00;67.20
37974;DHT22;23796;51.458;7.000;2023-04-25T11:01:14;8.80;68.00
37974;DHT22;23796;51.458;7.000;2023-04-25T11:03:43;8.70;70.10
37974;DHT22;23796;51.458;7.000;2023-04-25T11:06:28;8.90;70.80
37974;DHT22;23796;51.458;7.000;2023-04-25T11:08:57;8.60;71.20
37974;DHT22;23796;51.458;7.000;2023-04-25T11:11:25;8.50;72.60
37974;DHT22;23796;51.458;7.000;2023-04-25T11:13:51;8.80;72.90
37974;DHT22;23796;51.458;7.000;2023-04-25T11:16:18;9.00;70.50
37974;DHT22;23796;51.458;7.000;2023-04-25T11:18:46;9.20;70.00
37974;DHT22;23796;51.458;7.000;2023-04-25T11:21:13;9.10;69.70
37974;DHT22;23796;51.458;7.000;2023-04-25T11:23:38;9.40;68.70
37974;DHT22;23796;51.458;7.000;2023-04-25T11:26:04;9.40;69.00
37974;DHT22;23796;51.458;7.000;2023-04-25T11:28:30;9.30;68.20
37974;DHT22;23796;51.458;7.000;2023-04-25T11:30:56;9.40;68.60
37974;DHT22;23796;51.458;7.000;2023-04-25T11:33:25;9.40;65.20
37974;DHT22;23796;51.458;7.000;2023-04-25T11:35:55;9.00;65.20
37974;DHT22;23796;51.458;7.000;2023-04-25T11:38:25;9.00;66.40
37974;DHT22;23796;51.458;7.000;2023-04-25T11:40:52;9.20;65.60
37974;DHT22;23796;51.458;7.000;2023-04-25T11:43:20;9.30;64.60
37974;DHT22;23796;51.458;7.000;2023-04-25T11:45:48;9.30;62.30
37974;DHT22;23796;51.458;7.000;2023-04-25T11:48:14;9.30;62.70
37974;DHT22;23796;51.458;7.000;2023-04-25T11:50:40;9.60;62.30
37974;DHT22;23796;51.458;7.000;2023-04-25T11:53:05;9.90;62.30
37974;DHT22;23796;51.458;7.000;2023-04-25T11:55:31;10.10;61.50
37974;DHT22;23796;51.458;7.000;2023-04-25T11:58:00;10.10;61.10
37974;DHT22;23796;51.458;7.000;2023-04-25T12:00:31;10.10;59.60
37974;DHT22;23796;51.458;7.000;2023-04-25T12:02:59;10.10;60.20
37974;DHT22;23796;51.458;7.000;2023-04-25T12:05:27;10.00;60.60
37974;DHT22;23796;51.458;7.000;2023-04-25T12:07:54;10.00;60.90
37974;DHT22;23796;51.458;7.000;2023-04-25T12:10:20;10.10;61.00
37974;DHT22;23796;51.458;7.000;2023-04-25T12:12:49;9.80;61.20
37974;DHT22;23796;51.458;7.000;2023-04-25T12:15:17;9.70;62.40
37974;DHT22;23796;51.458;7.000;2023-04-25T12:17:50;9.80;62.20
37974;DHT22;23796;51.458;7.000;2023-04-25T12:20:23;10.10;62.50
37974;DHT22;23796;51.458;7.000;2023-04-25T12:22:50;10.00;62.10
37974;DHT22;23796;51.458;7.000;2023-04-25T12:25:39;9.90;63.50
37974;DHT22;23796;51.458;7.000;2023-04-25T12:31:06;10.40;62.20
37974;DHT22;23796;51.458;7.000;2023-04-25T12:33:33;9.80;63.80
37974;DHT22;23796;51.458;7.000;2023-04-25T12:36:00;9.80;64.00
37974;DHT22;23796;51.458;7.000;2023-04-25T12:38:30;10.20;63.20
37974;DHT22;23796;51.458;7.000;2023-04-25T12:40:57;10.50;62.20
37974;DHT22;23796;51.458;7.000;2023-04-25T12:43:23;10.60;61.00
37974;DHT22;23796;51.458;7.000;2023-04-25T12:45:53;10.60;60.10
37974;DHT22;23796;51.458;7.000;2023-04-25T12:48:19;10.60;55.90
37974;DHT22;23796;51.458;7.000;2023-04-25T12:50:46;10.70;57.00
37974;DHT22;23796;51.458;7.000;2023-04-25T12:53:15;11.00;55.50
37974;DHT22;23796;51.458;7.000;2023-04-25T12:55:44;11.10;55.10
37974;DHT22;23796;51.458;7.000;2023-04-25T12:58:17;11.60;54.30
37974;DHT22;23796;51.458;7.000;2023-04-25T13:00:43;11.50;54.80
37974;DHT22;23796;51.458;7.000;2023-04-25T13:03:09;11.00;57.30
37974;DHT22;23796;51.458;7.000;2023-04-25T13:05:36;10.80;59.90
37974;DHT22;23796;51.458;7.000;2023-04-25T13:08:02;10.60;61.50
37974;DHT22;23796;51.458;7.000;2023-04-25T13:10:27;10.80;61.40
37974;DHT22;23796;51.458;7.000;2023-04-25T13:12:53;10.50;62.00
37974;DHT22;23796;51.458;7.000;2023-04-25T13:15:21;10.00;61.00
37974;DHT22;23796;51.458;7.000;2023-04-25T13:17:47;9.70;63.20
37974;DHT22;23796;51.458;7.000;2023-04-25T13:20:13;9.50;64.50
37974;DHT22;23796;51.458;7.000;2023-04-25T13:22:40;9.40;66.50
37974;DHT22;23796;51.458;7.000;2023-04-25T13:25:07;9.30;67.20
37974;DHT22;23796;51.458;7.000;2023-04-25T13:27:37;9.30;67.80
37974;DHT22;23796;51.458;7.000;2023-04-25T13:30:03;9.40;67.60
37974;DHT22;23796;51.458;7.000;2023-04-25T13:32:36;9.40;68.70
37974;DHT22;23796;51.458;7.000;2023-04-25T13:35:11;9.50;67.80
37974;DHT22;23796;51.458;7.000;2023-04-25T13:37:38;9.80;67.10
37974;DHT22;23796;51.458;7.000;2023-04-25T13:40:08;9.80;66.10
37974;DHT22;23796;51.458;7.000;2023-04-25T13:42:35;10.10;64.90
37974;DHT22;23796;51.458;7.000;2023-04-25T13:45:04;10.30;64.90
37974;DHT22;23796;51.458;7.000;2023-04-25T13:47:30;10.50;64.50
37974;DHT22;23796;51.458;7.000;2023-04-25T13:49:58;10.50;62.90
37974;DHT22;23796;51.458;7.000;2023-04-25T13:52:23;10.20;61.70
37974;DHT22;23796;51.458;7.000;2023-04-25T13:54:50;10.20;59.50
37974;DHT22;23796;51.458;7.000;2023-04-25T13:57:16;10.30;58.60
37974;DHT22;23796;51.458;7.000;2023-04-25T13:59:42;10.40;57.90
37974;DHT22;23796;51.458;7.000;2023-04-25T14:02:07;10.60;58.50
37974;DHT22;23796;51.458;7.000;2023-04-25T14:04:33;10.70;59.10
37974;DHT22;23796;51.458;7.000;2023-04-25T14:06:59;10.60;58.60
37974;DHT22;23796;51.458;7.000;2023-04-25T14:09:25;10.60;59.60
37974;DHT22;23796;51.458;7.000;2023-04-25T14:11:52;10.60;58.80
37974;DHT22;23796;51.458;7.000;2023-04-25T14:14:19;10.40;58.20
37974;DHT22;23796;51.458;7.000;2023-04-25T14:16:48;10.60;58.00
37974;DHT22;23796;51.458;7.000;2023-04-25T14:19:14;10.70;57.60
37974;DHT22;23796;51.458;7.000;2023-04-25T14:21:40;10.80;57.20
37974;DHT22;23796;51.458;7.000;2023-04-25T14:24:06;10.80;55.80
37974;DHT22;23796;51.458;7.000;2023-04-25T14:26:34;10.80;54.70
37974;DHT22;23796;51.458;7.000;2023-04-25T14:29:04;11.00;54.90
37974;DHT22;23796;51.458;7.000;2023-04-25T14:31:31;11.20;53.30
37974;DHT22;23796;51.458;7.000;2023-04-25T14:33:59;11.20;52.50
37974;DHT22;23796;51.458;7.000;2023-04-25T14:36:26;11.30;53.30
37974;DHT22;23796;51.458;7.000;2023-04-25T14:38:52;11.10;52.20
37974;DHT22;23796;51.458;7.000;2023-04-25T14:41:20;11.10;52.10
37974;DHT22;23796;51.458;7.000;2023-04-25T14:43:48;11.20;52.40
37974;DHT22;23796;51.458;7.000;2023-04-25T14:46:14;11.40;52.30
37974;DHT22;23796;51.458;7.000;2023-04-25T14:48:41;11.20;52.90
37974;DHT22;23796;51.458;7.000;2023-04-25T14:51:07;11.00;53.70
37974;DHT22;23796;51.458;7.000;2023-04-25T14:53:32;10.80;54.10
37974;DHT22;23796;51.458;7.000;2023-04-25T14:55:58;10.80;57.30
37974;DHT22;23796;51.458;7.000;2023-04-25T14:58:24;10.70;58.40
37974;DHT22;23796;51.458;7.000;2023-04-25T15:00:49;10.50;59.90
37974;DHT22;23796;51.458;7.000;2023-04-25T15:03:16;10.70;60.50
37974;DHT22;23796;51.458;7.000;2023-04-25T15:05:42;10.90;60.00
37974;DHT22;23796;51.458;7.000;2023-04-25T15:08:10;10.80;59.20
37974;DHT22;23796;51.458;7.000;2023-04-25T15:10:36;10.70;59.40
37974;DHT22;23796;51.458;7.000;2023-04-25T15:13:03;10.60;59.00
37974;DHT22;23796;51.458;7.000;2023-04-25T15:15:31;10.30;57.40
37974;DHT22;23796;51.458;7.000;2023-04-25T15:17:57;10.10;57.90
37974;DHT22;23796;51.458;7.000;2023-04-25T15:20:25;10.10;58.20
37974;DHT22;23796;51.458;7.000;2023-04-25T15:22:52;10.10;58.50
37974;DHT22;23796;51.458;7.000;2023-04-25T15:25:17;10.10;58.90
37974;DHT22;23796;51.458;7.000;2023-04-25T15:27:44;10.30;58.80
37974;DHT22;23796;51.458;7.000;2023-04-25T15:30:13;10.30;58.90
37974;DHT22;23796;51.458;7.000;2023-04-25T15:32:41;10.40;58.50
37974;DHT22;23796;51.458;7.000;2023-04-25T15:35:07;10.50;57.50
37974;DHT22;23796;51.458;7.000;2023-04-25T15:37:34;10.70;57.80
37974;DHT22;23796;51.458;7.000;2023-04-25T15:40:06;10.70;57.20
37974;DHT22;23796;51.458;7.000;2023-04-25T15:42:43;10.70;56.50
37974;DHT22;23796;51.458;7.000;2023-04-25T15:45:12;10.80;54.80
37974;DHT22;23796;51.458;7.000;2023-04-25T15:47:39;10.70;54.80
37974;DHT22;23796;51.458;7.000;2023-04-25T15:50:08;10.80;55.30
37974;DHT22;23796;51.458;7.000;2023-04-25T15:52:34;10.90;55.40
37974;DHT22;23796;51.458;7.000;2023-04-25T15:55:00;11.00;55.30
37974;DHT22;23796;51.458;7.000;2023-04-25T15:57:26;11.00;55.10